Home   Weather   Romania   Timișoara   Past weeks
Flag for Romania

Past Weather in Timișoara, Romania — Yesterday and Last 2 Weeks

Currently: 41 °F. Clear. (Weather station: Timisoara Airport, Romania). See more current weather

Past Weather in Timișoara — Graph

°F

Timișoara Temperature Yesterday

Maximum temperature yesterday: 64 °F (at 3:30 pm)
Minimum temperature yesterday: 46 °F (at 12:00 am)
Average temperature yesterday: 54 °F

High & Low Weather Summary for the Past Weeks

 TemperatureHumidityPressure
High68 °F (Feb 26, 1:30 pm)100% (Feb 18, 6:00 am)30.45 "Hg (Feb 18, 6:00 am)
Low28 °F (Feb 17, 7:30 am)28% (Feb 27, 1:30 pm)29.71 "Hg (Feb 23, 11:30 pm)
Average49 °F71%30.03 "Hg
* Reported Feb 16 10:00 pm — Mar 2 10:30 pm, Timișoara. Weather by CustomWeather, © 2024

Note: Actual official high and low records may vary slightly from our data, if they occured in-between our weather recording intervals... More about our weather records

Timișoara Weather History for the Previous 24 Hours

Scroll right to see more
 ConditionsComfort  
Time TempWeatherWind HumidityBarometerVisibility
10:30 pm
Sat, Mar 2
41 °FClear.3 mph100%29.92 "Hg10 mi
10:00 pm43 °FClear.2 mph100%29.89 "Hg10 mi
9:30 pm43 °FClear.2 mph93%29.89 "Hg10 mi
9:00 pm46 °FClear.5 mph82%29.89 "Hg10 mi
8:30 pm48 °FClear.5 mph76%29.89 "Hg10 mi
8:00 pm46 °FClear.5 mph87%29.89 "Hg10 mi
7:30 pm46 °FClear.6 mph82%29.89 "Hg10 mi
7:00 pm48 °FClear.7 mph76%29.89 "Hg10 mi
6:30 pm50 °FClear.7 mph76%29.89 "Hg10 mi
6:00 pm52 °FSunny.2 mph77%29.89 "Hg10 mi
5:30 pm54 °FSunny.3 mph67%29.89 "Hg10 mi
5:00 pm54 °FSunny.5 mph67%29.89 "Hg10 mi
4:30 pm54 °FSunny.7 mph67%29.89 "Hg10 mi
4:00 pm55 °FSunny.7 mph63%29.89 "Hg10 mi
3:30 pm55 °FSunny.7 mph63%29.86 "Hg10 mi
3:00 pm55 °FSunny.8 mph63%29.86 "Hg10 mi
2:30 pm54 °FSunny.9 mph63%29.89 "Hg10 mi
2:00 pm54 °FSunny.10 mph63%29.89 "Hg10 mi
1:30 pm54 °FSunny.12 mph58%29.89 "Hg10 mi
1:00 pm54 °FSunny.12 mph63%29.89 "Hg10 mi
12:30 pm54 °FSunny.13 mph58%29.89 "Hg10 mi
12:00 pm52 °FSunny.10 mph62%29.89 "Hg10 mi
11:30 am52 °FSunny.8 mph67%29.89 "Hg10 mi
11:00 am50 °FSunny.8 mph67%29.89 "Hg10 mi
10:30 am50 °FSunny.7 mph71%29.89 "Hg10 mi
10:00 am48 °FSunny.6 mph82%29.86 "Hg10 mi
9:30 am48 °FSunny.5 mph82%29.86 "Hg10 mi
9:00 am48 °FLight rain. Clear.7 mph76%29.86 "HgN/A
8:30 am50 °FSunny.8 mph71%29.86 "Hg10 mi
8:00 am48 °FSunny.7 mph87%29.86 "Hg10 mi
7:30 am48 °FSunny.5 mph100%29.83 "Hg10 mi
7:00 am48 °FClear.5 mph100%29.83 "Hg10 mi
6:30 am48 °FOvercast.6 mph100%29.83 "HgN/A
6:00 am48 °FLight rain. Overcast.5 mph100%29.83 "HgN/A
5:30 am48 °FLight rain. Overcast.6 mph100%29.83 "HgN/A
5:00 am48 °FLight rain. Passing clouds.5 mph100%29.83 "HgN/A
4:30 am48 °FLight rain. Overcast.5 mph94%29.83 "HgN/A
4:00 am50 °FLight rain. Overcast.6 mph82%29.83 "HgN/A
3:30 am52 °FLight rain. Overcast.8 mph72%29.83 "HgN/A
3:00 am52 °FOvercast.8 mph72%29.83 "HgN/A
2:30 am52 °FClear.9 mph67%29.83 "Hg10 mi
2:00 am52 °FClear.8 mph72%29.86 "Hg10 mi
1:30 am54 °FClear.9 mph63%29.83 "Hg10 mi
1:00 am54 °FClear.8 mph58%29.83 "Hg10 mi
12:30 am54 °FClear.7 mph58%29.83 "Hg10 mi
12:00 am52 °FPassing clouds.6 mph72%29.83 "HgN/A
11:30 pm
Fri, Mar 1
52 °FClear.7 mph72%29.86 "Hg10 mi
11:00 pm54 °FClear.6 mph63%29.86 "Hg10 mi
Weather by CustomWeather, © 2024

See weather overview